createdAt,value
2019-02-12T00:00:04.842Z,102848.76
2019-02-12T00:02:38.712Z,102855.75
2019-02-12T00:05:12.632Z,102864.91
2019-02-12T00:07:43.680Z,102872.12
2019-02-12T00:10:14.020Z,102879.31
2019-02-12T00:12:44.798Z,102881.58
2019-02-12T00:15:15.080Z,102888.48
2019-02-12T00:17:45.744Z,102888.58
2019-02-12T00:20:16.369Z,102885.55
2019-02-12T00:22:48.997Z,102892.42
2019-02-12T00:25:19.308Z,102892.53
2019-02-12T00:27:53.651Z,102889.81
2019-02-12T00:30:24.353Z,102889.25
2019-02-12T00:32:54.833Z,102890.26
2019-02-12T00:35:25.110Z,102887.23
2019-02-12T00:38:00.815Z,102887.91
2019-02-12T00:40:31.449Z,102894.47
2019-02-12T00:43:02.854Z,102902.20
2019-02-12T00:45:33.471Z,102902.82
2019-02-12T00:48:03.781Z,102911.55
2019-02-12T00:50:38.131Z,102906.19
2019-02-12T00:53:11.128Z,102905.34
2019-02-12T00:55:41.979Z,102913.08
2019-02-12T00:58:12.396Z,102906.20
2019-02-12T01:00:43.016Z,102907.57
2019-02-12T01:03:13.379Z,102911.98
2019-02-12T01:05:45.073Z,102907.76
2019-02-12T01:08:15.670Z,102911.53
2019-02-12T01:10:46.234Z,102916.44
2019-02-12T01:13:16.553Z,102910.80
2019-02-12T01:15:49.178Z,102915.88
2019-02-12T01:18:21.449Z,102909.84
2019-02-12T01:20:58.300Z,102905.88
2019-02-12T01:23:30.258Z,102904.88
2019-02-12T01:26:00.994Z,102901.77
2019-02-12T01:28:31.334Z,102899.08
2019-02-12T01:31:01.682Z,102901.11
2019-02-12T01:33:32.108Z,102901.88
2019-02-12T01:36:03.470Z,102901.52
2019-02-12T01:38:39.708Z,102908.14
2019-02-12T01:41:12.867Z,102903.14
2019-02-12T01:43:43.148Z,102903.14
2019-02-12T01:46:13.427Z,102907.09
2019-02-12T01:48:43.827Z,102907.09
2019-02-12T01:51:15.594Z,102911.47
2019-02-12T01:54:05.379Z,102918.55
2019-02-12T01:56:38.551Z,102908.23
2019-02-12T01:59:08.837Z,102909.70
2019-02-12T02:01:39.753Z,102916.11
2019-02-12T02:04:10.106Z,102916.11
2019-02-12T02:06:42.084Z,102918.76
2019-02-12T02:09:12.904Z,102919.28
2019-02-12T02:11:48.275Z,102913.95
2019-02-12T02:14:19.647Z,102916.50
2019-02-12T02:16:52.001Z,102914.47
2019-02-12T02:19:22.891Z,102921.09
2019-02-12T02:21:53.179Z,102924.23
2019-02-12T02:24:23.491Z,102928.95
2019-02-12T02:26:54.144Z,102925.30
2019-02-12T02:29:25.486Z,102924.56
2019-02-12T02:32:00.667Z,102923.91
2019-02-12T02:34:31.085Z,102914.88
2019-02-12T02:37:01.677Z,102922.08
2019-02-12T02:39:33.136Z,102925.31
2019-02-12T02:42:04.097Z,102934.08
2019-02-12T02:44:35.550Z,102927.56
2019-02-12T02:47:06.139Z,102934.50
2019-02-12T02:49:36.473Z,102924.95
2019-02-12T02:52:07.037Z,102923.10
2019-02-12T02:54:38.622Z,102936.62
2019-02-12T02:57:09.152Z,102934.45
2019-02-12T02:59:39.414Z,102940.97
2019-02-12T03:02:10.056Z,102941.56
2019-02-12T03:04:40.448Z,102942.41
2019-02-12T03:07:11.289Z,102939.11
2019-02-12T03:09:44.457Z,102946.61
2019-02-12T03:12:16.512Z,102946.84
2019-02-12T03:14:46.875Z,102940.52
2019-02-12T03:17:17.163Z,102944.34
2019-02-12T03:19:49.259Z,102941.38
2019-02-12T03:22:23.820Z,102940.80
2019-02-12T03:24:56.352Z,102942.06
2019-02-12T03:27:26.636Z,102949.69
2019-02-12T03:29:57.069Z,102947.28
2019-02-12T03:32:27.571Z,102954.86
2019-02-12T03:34:57.848Z,102942.97
2019-02-12T03:37:28.301Z,102948.83
2019-02-12T03:39:58.887Z,102947.88
2019-02-12T03:42:29.198Z,102952.42
2019-02-12T03:44:59.719Z,102954.81
2019-02-12T03:47:31.640Z,102954.81
2019-02-12T03:50:02.220Z,102963.95
2019-02-12T03:52:32.494Z,102966.92
2019-02-12T03:55:04.544Z,102954.40
2019-02-12T03:57:34.843Z,102965.43
2019-02-12T04:00:07.462Z,102972.56
2019-02-12T04:02:43.081Z,102970.88
2019-02-12T04:05:15.075Z,102962.27
2019-02-12T04:07:45.379Z,102965.18
2019-02-12T04:10:16.335Z,102962.47
2019-02-12T04:12:49.742Z,102959.11
2019-02-12T04:15:20.860Z,102964.63
2019-02-12T04:17:51.388Z,102967.34
2019-02-12T04:20:24.631Z,102974.22
2019-02-12T04:22:54.914Z,102972.53
2019-02-12T04:25:29.042Z,102975.55
2019-02-12T04:27:59.617Z,102977.09
2019-02-12T04:30:30.254Z,102980.33
2019-02-12T04:33:00.731Z,102981.34
2019-02-12T04:35:32.398Z,102978.67
2019-02-12T04:38:06.882Z,102978.67
2019-02-12T04:40:38.627Z,102981.16
2019-02-12T04:43:09.285Z,102976.98
2019-02-12T04:45:41.982Z,102977.53
2019-02-12T04:48:12.241Z,102978.90
2019-02-12T04:50:44.219Z,102977.25
2019-02-12T04:53:14.695Z,102972.27
2019-02-12T04:55:52.288Z,102974.76
2019-02-12T04:58:24.223Z,102972.52
2019-02-12T05:00:54.581Z,102972.52
2019-02-12T05:03:26.115Z,102974.28
2019-02-12T05:05:58.417Z,102980.13
2019-02-12T05:08:40.866Z,102977.53
2019-02-12T05:11:15.618Z,102980.70
2019-02-12T05:13:47.976Z,102981.03
2019-02-12T05:16:19.717Z,102982.28
2019-02-12T05:18:50.212Z,102981.35
2019-02-12T05:21:20.529Z,102978.29
2019-02-12T05:23:53.559Z,102981.03
2019-02-12T05:26:25.702Z,102984.30
2019-02-12T05:28:56.013Z,102980.02
2019-02-12T05:31:27.647Z,102984.22
2019-02-12T05:33:58.030Z,102984.81
2019-02-12T05:36:28.339Z,102986.83
2019-02-12T05:38:58.862Z,102988.98
2019-02-12T05:41:30.404Z,102986.25
2019-02-12T05:44:03.084Z,102986.47
2019-02-12T05:46:37.788Z,102980.74
2019-02-12T05:49:14.584Z,102984.70
2019-02-12T05:51:43.509Z,102977.47
2019-02-12T05:54:14.165Z,102985.03
2019-02-12T05:56:47.727Z,102985.25
2019-02-12T05:59:18.392Z,102991.33
2019-02-12T06:01:52.690Z,103001.30
2019-02-12T06:04:23.002Z,103001.30
2019-02-12T06:06:53.800Z,102994.94
2019-02-12T06:09:24.097Z,102994.61
2019-02-12T06:11:55.819Z,102998.28
2019-02-12T06:14:28.050Z,102999.66
2019-02-12T06:17:01.059Z,103000.41
2019-02-12T06:19:31.679Z,103005.20
2019-02-12T06:22:03.323Z,103005.78
2019-02-12T06:24:35.024Z,103005.59
2019-02-12T06:27:05.490Z,103006.21
2019-02-12T06:29:36.121Z,103006.36
2019-02-12T06:32:06.473Z,102995.83
2019-02-12T06:34:36.863Z,103002.53
2019-02-12T06:37:07.179Z,102999.41
2019-02-12T06:39:39.223Z,103006.61
2019-02-12T06:42:09.526Z,103006.03
2019-02-12T06:44:40.153Z,103004.73
2019-02-12T06:47:10.907Z,103007.36
2019-02-12T06:49:41.286Z,103014.53
2019-02-12T06:52:11.610Z,103010.03
2019-02-12T06:54:43.874Z,103013.30
2019-02-12T06:57:14.264Z,103018.08
2019-02-12T06:59:44.648Z,103021.17
2019-02-12T07:02:52.374Z,103019.64
2019-02-12T07:05:22.735Z,103019.64
2019-02-12T07:08:29.745Z,103018.88
2019-02-12T07:11:04.751Z,103023.30
2019-02-12T07:13:40.659Z,103025.80
2019-02-12T07:16:27.926Z,103034.77
2019-02-12T07:19:47.667Z,103031.89
2019-02-12T07:23:05.291Z,103038.92
2019-02-12T07:26:09.308Z,103049.33
2019-02-12T07:29:09.111Z,103063.67
2019-02-12T07:32:26.941Z,103065.89
2019-02-12T07:35:19.856Z,103075.90
2019-02-12T07:38:32.042Z,103077.75
2019-02-12T07:41:38.742Z,103083.70
2019-02-12T07:44:44.045Z,103089.61
2019-02-12T07:47:45.769Z,103098.95
2019-02-12T07:50:49.122Z,103104.33
2019-02-12T07:53:53.864Z,103111.78
2019-02-12T07:57:03.885Z,103109.66
2019-02-12T07:59:56.562Z,103106.64
2019-02-12T08:03:04.027Z,103118.91
2019-02-12T08:06:12.458Z,103123.99
2019-02-12T08:09:42.750Z,103119.19
2019-02-12T08:12:34.747Z,103128.54
2019-02-12T08:15:12.218Z,103134.86
2019-02-12T08:18:21.441Z,103145.24
2019-02-12T08:21:29.474Z,103149.88
2019-02-12T08:24:30.341Z,103154.78
2019-02-12T08:27:27.464Z,103154.78
2019-02-12T08:30:38.833Z,103150.32
2019-02-12T08:33:47.595Z,103163.05
2019-02-12T08:37:15.744Z,103162.39
2019-02-12T08:40:15.690Z,103168.48
2019-02-12T08:43:16.348Z,103163.52
2019-02-12T08:46:36.557Z,103160.50
2019-02-12T08:49:32.330Z,103164.25
2019-02-12T08:52:51.280Z,103157.47
2019-02-12T08:55:50.132Z,103162.23
2019-02-12T08:58:50.224Z,103157.07
2019-02-12T09:02:10.560Z,103161.81
2019-02-12T09:05:25.115Z,103158.50
2019-02-12T09:08:27.899Z,103156.38
2019-02-12T09:11:39.722Z,103164.23
2019-02-12T09:14:20.948Z,103162.60
2019-02-12T09:17:35.515Z,103148.58
2019-02-12T09:20:29.961Z,103148.58
2019-02-12T09:24:03.265Z,103154.94
2019-02-12T09:27:14.253Z,103153.84
2019-02-12T09:29:57.668Z,103150.13
2019-02-12T09:33:07.928Z,103154.69
2019-02-12T09:36:08.820Z,103151.41
2019-02-12T09:39:20.169Z,103158.50
2019-02-12T09:42:06.114Z,103164.29
2019-02-12T09:45:06.406Z,103159.34
2019-02-12T09:47:53.375Z,103165.35
2019-02-12T09:51:05.065Z,103167.88
2019-02-12T09:54:11.415Z,103171.73
2019-02-12T09:57:01.001Z,103155.82
2019-02-12T10:00:03.408Z,103167.53
2019-02-12T10:03:15.978Z,103168.17
2019-02-12T10:05:59.101Z,103165.86
2019-02-12T10:09:06.414Z,103169.17
2019-02-12T10:11:58.469Z,103166.32
2019-02-12T10:15:00.438Z,103163.23
2019-02-12T10:18:05.743Z,103165.87
2019-02-12T10:21:26.981Z,103162.43
2019-02-12T10:24:20.281Z,103172.27
2019-02-12T10:27:18.885Z,103182.90
2019-02-12T10:30:18.335Z,103189.42
2019-02-12T10:32:58.096Z,103187.85
2019-02-12T10:35:33.773Z,103185.70
2019-02-12T10:38:07.777Z,103179.34
2019-02-12T10:40:44.684Z,103179.34
2019-02-12T10:43:11.871Z,103190.55
2019-02-12T10:45:42.331Z,103184.17
2019-02-12T10:48:15.029Z,103183.09
2019-02-12T10:50:47.182Z,103176.85
2019-02-12T10:53:27.518Z,103178.72
2019-02-12T10:55:59.474Z,103177.84
2019-02-12T10:58:31.529Z,103173.34
2019-02-12T11:01:01.834Z,103177.58
2019-02-12T11:03:33.730Z,103174.23
2019-02-12T11:06:04.011Z,103178.25
2019-02-12T11:08:34.595Z,103175.13
2019-02-12T11:11:04.887Z,103171.81
2019-02-12T11:13:35.705Z,103172.11
2019-02-12T11:16:08.139Z,103168.61
2019-02-12T11:18:43.428Z,103177.09
2019-02-12T11:21:13.747Z,103169.37
2019-02-12T11:23:44.338Z,103163.44
2019-02-12T11:26:14.664Z,103162.40
2019-02-12T11:29:06.938Z,103169.55
2019-02-12T11:31:27.766Z,103167.25
2019-02-12T11:33:58.261Z,103165.72
2019-02-12T11:36:30.131Z,103158.66
2019-02-12T11:39:03.519Z,103162.56
2019-02-12T11:41:36.158Z,103161.95
2019-02-12T11:44:08.330Z,103160.65
2019-02-12T11:46:38.776Z,103160.38
2019-02-12T11:49:09.109Z,103159.06
2019-02-12T11:51:39.897Z,103156.14
2019-02-12T11:54:10.248Z,103157.59
2019-02-12T11:56:40.753Z,103154.57
2019-02-12T11:59:11.353Z,103155.05
2019-02-12T12:01:43.849Z,103148.66
2019-02-12T12:04:18.123Z,103154.22
2019-02-12T12:06:51.910Z,103153.38
2019-02-12T12:09:22.229Z,103151.09
2019-02-12T12:11:52.835Z,103150.37
2019-02-12T12:14:23.193Z,103145.88
2019-02-12T12:16:54.873Z,103136.77
2019-02-12T12:19:47.947Z,103135.63
2019-02-12T12:22:21.192Z,103138.00
2019-02-12T12:25:10.614Z,103143.83
2019-02-12T12:27:36.984Z,103139.92
2019-02-12T12:30:08.549Z,103140.17
2019-02-12T12:32:40.249Z,103132.04
2019-02-12T12:35:10.980Z,103138.00
2019-02-12T12:37:44.403Z,103142.31
2019-02-12T12:40:14.729Z,103127.13
2019-02-12T12:42:54.277Z,103127.50
2019-02-12T12:45:24.579Z,103132.14
2019-02-12T12:47:55.387Z,103130.35
2019-02-12T12:50:27.415Z,103134.32
2019-02-12T12:52:57.988Z,103136.73
2019-02-12T12:55:28.435Z,103138.13
2019-02-12T12:58:00.697Z,103148.93
2019-02-12T13:00:31.285Z,103146.43
2019-02-12T13:03:05.151Z,103140.55
2019-02-12T13:05:39.313Z,103148.27
2019-02-12T13:08:09.891Z,103149.06
2019-02-12T13:10:40.467Z,103152.19
2019-02-12T13:13:10.866Z,103145.56
2019-02-12T13:15:42.615Z,103140.83
2019-02-12T13:18:13.258Z,103144.04
2019-02-12T13:20:43.614Z,103135.90
2019-02-12T13:23:14.021Z,103134.11
2019-02-12T13:25:44.451Z,103130.94
2019-02-12T13:28:14.814Z,103137.17
2019-02-12T13:30:45.148Z,103134.00
2019-02-12T13:33:15.503Z,103133.62
2019-02-12T13:35:47.775Z,103145.88
2019-02-12T13:38:18.431Z,103152.14
2019-02-12T13:40:48.729Z,103138.53
2019-02-12T13:43:25.352Z,103140.13
2019-02-12T13:45:58.294Z,103138.95
2019-02-12T13:48:29.396Z,103137.98
2019-02-12T13:51:00.430Z,103138.84
2019-02-12T13:53:30.719Z,103133.91
2019-02-12T13:56:02.405Z,103127.90
2019-02-12T13:58:38.596Z,103133.27
2019-02-12T14:01:08.862Z,103130.95
2019-02-12T14:03:40.220Z,103134.92
2019-02-12T14:06:10.676Z,103134.92
2019-02-12T14:08:42.399Z,103128.95
2019-02-12T14:11:13.040Z,103127.45
2019-02-12T14:13:43.403Z,103131.89
2019-02-12T14:16:15.611Z,103136.94
2019-02-12T14:18:47.419Z,103140.42
2019-02-12T14:21:17.727Z,103135.11
2019-02-12T14:23:48.164Z,103138.73
2019-02-12T14:26:33.810Z,103138.35
2019-02-12T14:28:56.699Z,103141.70
2019-02-12T14:31:27.179Z,103139.66
2019-02-12T14:34:02.828Z,103137.00
2019-02-12T14:36:35.064Z,103139.00
2019-02-12T14:39:06.189Z,103138.73
2019-02-12T14:41:37.337Z,103139.36
2019-02-12T14:44:07.668Z,103140.62
2019-02-12T14:46:38.138Z,103139.11
2019-02-12T14:49:08.863Z,103138.11
2019-02-12T14:51:39.243Z,103136.13
2019-02-12T14:54:12.061Z,103137.92
2019-02-12T14:56:42.868Z,103139.22
2019-02-12T14:59:13.437Z,103140.91
2019-02-12T15:01:45.630Z,103141.39
2019-02-12T15:04:16.285Z,103144.84
2019-02-12T15:07:01.877Z,103142.42
2019-02-12T15:09:18.956Z,103143.78
2019-02-12T15:11:53.219Z,103138.16
2019-02-12T15:14:24.652Z,103135.59
2019-02-12T15:16:56.334Z,103134.69
2019-02-12T15:19:26.671Z,103136.08
2019-02-12T15:21:58.486Z,103133.03
2019-02-12T15:24:29.361Z,103125.97
2019-02-12T15:26:59.711Z,103125.97
2019-02-12T15:29:32.465Z,103136.44
2019-02-12T15:32:05.767Z,103126.29
2019-02-12T15:34:37.421Z,103127.06
2019-02-12T15:37:07.764Z,103121.36
2019-02-12T15:39:38.081Z,103128.78
2019-02-12T15:42:08.440Z,103127.13
2019-02-12T15:44:43.790Z,103120.12
2019-02-12T15:47:11.055Z,103118.59
2019-02-12T15:49:43.312Z,103125.61
2019-02-12T15:52:15.641Z,103123.45
2019-02-12T15:54:46.120Z,103133.78
2019-02-12T15:57:17.638Z,103135.82
2019-02-12T15:59:48.263Z,103123.34
2019-02-12T16:02:23.825Z,103123.34
2019-02-12T16:04:52.199Z,103132.75
2019-02-12T16:07:24.252Z,103122.05
2019-02-12T16:09:56.919Z,103126.36
2019-02-12T16:12:29.877Z,103128.64
2019-02-12T16:15:01.722Z,103140.17
2019-02-12T16:17:39.298Z,103140.32
2019-02-12T16:20:10.184Z,103142.45
2019-02-12T16:22:40.813Z,103146.11
2019-02-12T16:25:11.440Z,103147.11
2019-02-12T16:27:44.714Z,103159.98
2019-02-12T16:30:21.575Z,103161.45
2019-02-12T16:32:56.140Z,103165.09
2019-02-12T16:35:26.743Z,103168.36
2019-02-12T16:37:57.257Z,103168.45
2019-02-12T16:40:27.837Z,103161.05
2019-02-12T16:42:58.166Z,103168.48
2019-02-12T16:45:31.939Z,103175.00
2019-02-12T16:48:02.446Z,103178.70
2019-02-12T16:50:33.036Z,103177.02
2019-02-12T16:53:03.641Z,103175.75
2019-02-12T16:55:37.054Z,103174.45
2019-02-12T16:58:07.738Z,103182.53
2019-02-12T17:00:38.499Z,103185.41
2019-02-12T17:03:10.528Z,103187.05
2019-02-12T17:05:43.962Z,103195.01
2019-02-12T17:08:14.481Z,103200.38
2019-02-12T17:10:50.954Z,103186.28
2019-02-12T17:13:21.030Z,103196.28
2019-02-12T17:15:51.701Z,103193.13
2019-02-12T17:18:23.351Z,103192.72
2019-02-12T17:20:54.257Z,103198.16
2019-02-12T17:23:24.751Z,103198.61
2019-02-12T17:25:56.559Z,103208.77
2019-02-12T17:28:28.559Z,103208.03
2019-02-12T17:31:02.013Z,103209.79
2019-02-12T17:33:33.993Z,103209.51
2019-02-12T17:36:04.805Z,103216.89
2019-02-12T17:38:37.086Z,103216.94
2019-02-12T17:41:08.253Z,103221.64
2019-02-12T17:43:38.854Z,103215.98
2019-02-12T17:46:11.303Z,103220.58
2019-02-12T17:48:42.673Z,103224.27
2019-02-12T17:51:13.067Z,103222.02
2019-02-12T17:53:47.577Z,103222.17
2019-02-12T17:56:24.738Z,103222.09
2019-02-12T17:58:53.250Z,103226.87
2019-02-12T18:01:24.016Z,103220.53
2019-02-12T18:03:54.750Z,103229.00
2019-02-12T18:06:27.715Z,103224.29
2019-02-12T18:08:58.379Z,103220.09
2019-02-12T18:11:30.869Z,103220.09
2019-02-12T18:14:03.182Z,103233.23
2019-02-12T18:16:37.502Z,103223.18
2019-02-12T18:19:08.662Z,103227.76
2019-02-12T18:21:42.219Z,103225.98
2019-02-12T18:24:12.710Z,103228.00
2019-02-12T18:26:44.278Z,103229.85
2019-02-12T18:29:14.756Z,103228.22
2019-02-12T18:31:48.425Z,103221.89
2019-02-12T18:34:18.998Z,103225.70
2019-02-12T18:36:51.290Z,103225.05
2019-02-12T18:39:21.904Z,103225.05
2019-02-12T18:41:52.766Z,103226.02
2019-02-12T18:44:27.678Z,103229.82
2019-02-12T18:46:59.741Z,103230.48
2019-02-12T18:49:30.096Z,103232.12
2019-02-12T18:52:00.799Z,103222.16
2019-02-12T18:54:31.484Z,103230.43
2019-02-12T18:57:03.224Z,103223.66
2019-02-12T18:59:33.602Z,103223.27
2019-02-12T19:02:08.287Z,103227.22
2019-02-12T19:04:39.818Z,103218.12
2019-02-12T19:07:11.258Z,103219.16
2019-02-12T19:09:41.593Z,103220.83
2019-02-12T19:12:12.097Z,103216.63
2019-02-12T19:14:45.000Z,103210.69
2019-02-12T19:17:14.757Z,103204.42
2019-02-12T19:19:45.158Z,103203.39
2019-02-12T19:22:15.508Z,103203.82
2019-02-12T19:24:45.830Z,103207.26
2019-02-12T19:27:18.626Z,103215.35
2019-02-12T19:29:49.352Z,103213.95
2019-02-12T19:32:20.141Z,103209.62
2019-02-12T19:34:50.515Z,103218.89
2019-02-12T19:37:21.067Z,103220.36
2019-02-12T19:39:51.625Z,103217.33
2019-02-12T19:42:22.193Z,103220.66
2019-02-12T19:44:59.324Z,103227.52
2019-02-12T19:47:26.540Z,103237.28
2019-02-12T19:49:58.155Z,103237.05
2019-02-12T19:52:28.469Z,103235.86
2019-02-12T19:55:04.501Z,103234.67
2019-02-12T19:57:34.977Z,103232.12
2019-02-12T20:00:09.890Z,103237.50
2019-02-12T20:02:40.338Z,103241.67
2019-02-12T20:05:11.381Z,103248.54
2019-02-12T20:07:44.066Z,103246.38
2019-02-12T20:10:18.795Z,103240.33
2019-02-12T20:12:49.144Z,103239.97
2019-02-12T20:15:29.920Z,103234.90
2019-02-12T20:17:59.356Z,103242.27
2019-02-12T20:20:29.676Z,103236.33
2019-02-12T20:23:00.328Z,103240.40
2019-02-12T20:25:32.128Z,103235.73
2019-02-12T20:28:09.007Z,103234.09
2019-02-12T20:30:45.334Z,103234.23
2019-02-12T20:33:17.139Z,103239.22
2019-02-12T20:35:47.629Z,103235.79
2019-02-12T20:38:18.053Z,103236.77
2019-02-12T20:40:52.047Z,103238.76
2019-02-12T20:43:22.850Z,103229.45
2019-02-12T20:45:53.535Z,103237.48
2019-02-12T20:48:25.548Z,103232.42
2019-02-12T20:50:56.198Z,103233.48
2019-02-12T20:53:26.640Z,103233.02
2019-02-12T20:55:57.958Z,103240.13
2019-02-12T20:58:31.697Z,103245.77
2019-02-12T21:01:04.304Z,103251.44
2019-02-12T21:03:34.728Z,103238.40
2019-02-12T21:06:05.438Z,103237.06
2019-02-12T21:08:36.120Z,103233.93
2019-02-12T21:11:06.615Z,103242.43
2019-02-12T21:13:37.431Z,103235.20
2019-02-12T21:16:08.453Z,103243.17
2019-02-12T21:18:39.225Z,103236.16
2019-02-12T21:21:12.700Z,103241.97
2019-02-12T21:23:43.534Z,103240.70
2019-02-12T21:26:19.829Z,103249.67
2019-02-12T21:28:50.279Z,103244.80
2019-02-12T21:31:20.789Z,103240.63
2019-02-12T21:33:51.876Z,103251.67
2019-02-12T21:36:22.236Z,103261.52
2019-02-12T21:38:58.633Z,103248.77
2019-02-12T21:41:32.129Z,103245.86
2019-02-12T21:44:04.757Z,103249.80
2019-02-12T21:46:36.941Z,103258.73
2019-02-12T21:49:07.526Z,103260.97
2019-02-12T21:51:38.196Z,103258.84
2019-02-12T21:54:08.644Z,103260.83
2019-02-12T21:56:40.265Z,103273.50
2019-02-12T21:59:13.026Z,103277.72
2019-02-12T22:01:44.744Z,103273.20
2019-02-12T22:04:15.184Z,103275.84
2019-02-12T22:06:45.522Z,103271.43
2019-02-12T22:09:17.213Z,103276.55
2019-02-12T22:11:47.733Z,103278.00
2019-02-12T22:14:18.084Z,103283.81
2019-02-12T22:16:48.543Z,103292.70
2019-02-12T22:19:19.221Z,103290.16
2019-02-12T22:21:51.165Z,103288.60
2019-02-12T22:24:24.924Z,103284.95
2019-02-12T22:26:56.896Z,103288.95
2019-02-12T22:29:27.547Z,103288.61
2019-02-12T22:32:00.482Z,103288.61
2019-02-12T22:34:30.461Z,103299.20
2019-02-12T22:37:03.015Z,103293.48
2019-02-12T22:39:33.348Z,103291.67
2019-02-12T22:42:03.962Z,103290.94
2019-02-12T22:44:35.933Z,103276.70
2019-02-12T22:47:07.306Z,103276.70
2019-02-12T22:49:40.523Z,103284.55
2019-02-12T22:52:10.969Z,103294.77
2019-02-12T22:54:41.356Z,103301.11
2019-02-12T22:57:11.676Z,103300.49
2019-02-12T22:59:42.191Z,103300.05
2019-02-12T23:02:12.902Z,103298.62
2019-02-12T23:04:44.885Z,103298.42
2019-02-12T23:07:20.871Z,103302.80
2019-02-12T23:09:53.019Z,103308.03
2019-02-12T23:12:24.123Z,103315.47
2019-02-12T23:14:54.416Z,103318.39
2019-02-12T23:17:24.710Z,103318.28
2019-02-12T23:19:58.640Z,103318.66
2019-02-12T23:22:30.829Z,103315.53
2019-02-12T23:25:01.325Z,103312.41
2019-02-12T23:27:31.837Z,103308.81
2019-02-12T23:30:02.547Z,103312.06
2019-02-12T23:32:34.589Z,103316.16
2019-02-12T23:35:07.064Z,103313.17
2019-02-12T23:37:37.708Z,103320.03
2019-02-12T23:40:08.592Z,103318.61
2019-02-12T23:42:38.972Z,103328.32
2019-02-12T23:45:09.632Z,103324.52
2019-02-12T23:47:41.638Z,103324.22
2019-02-12T23:50:12.351Z,103323.38
2019-02-12T23:52:42.754Z,103326.38
2019-02-12T23:55:15.976Z,103325.78
2019-02-12T23:57:47.756Z,103325.91
